sim
Sign-in with your pilot id or email,
or register
Callsign
Passwort

Schedule Details

Flight Number: DLH1805
Departure: Madrid Barajas Airport (LEMD) at 17:45
Arrival: Munich Airport (EDDM) at 20:20
Route: Lufthansa Passenger Schedule. Enter filed route here before submitting Pirep.

Weather Information
Getting current METAR information for LEMD 250400Z 30008KT 220V030 CAVOK 15/05 Q1018 NOSIG
Getting current METAR information for EDDM 250420Z 19006KT 9999 -RA SCT040 12/12 Q1001 NOSIG

Schedule Frequency

Route Map